KOXI

Starke County Airport

Knox, Indiana, USA
METAR KOXI 220355Z AUTO 12011G15KT 10SM OVC090 M13/M19 A3044 RMK AO1
Observed Flight Rules
Jan-22 @ 03:55 UTC (23 minutes ago) Visual Flight Rules
Wind Visibility Clouds
120° at 11 knots
 Gusting to 15 knots
10 miles
  • Overcast at 9,000' AGL
Temperatures Readings
Current -13°C / 9°F
Dewpoint -19°C / -2°F
Humidity 61%
Altimeter 30.44" Hg
Pressure 1030.81 hPa
Elevation 209
METAR KOXI 220355Z AUTO 12011G15KT 10SM OVC090 M13/M19 A3044 RMK AO1
Observed Flight Rules
Jan-22 @ 03:55 UTC
(23 minutes ago)
VFR
Wind Visibility
120° at 11 knots
 Gusting to 15 knots
10 miles
Clouds
  • Overcast at 9,000' AGL
Temperature Dewpoint
-13°C / 9°F -19°C / -2°F
Humidity Altimeter Pressure
61% 30.44" Hg 1030.81 hPa